sensor_id;sensor_type;location;lat;lon;timestamp;P1;durP1;ratioP1;P2;durP2;ratioP2
51686;SDS011;37774;52.192;4.584;2022-08-21T00:01:21;7.85;;;3.40;;
51686;SDS011;37774;52.192;4.584;2022-08-21T00:03:50;8.48;;;4.05;;
51686;SDS011;37774;52.192;4.584;2022-08-21T00:06:17;9.10;;;3.72;;
51686;SDS011;37774;52.192;4.584;2022-08-21T00:08:44;15.43;;;4.10;;
51686;SDS011;37774;52.192;4.584;2022-08-21T00:11:11;8.70;;;3.58;;
51686;SDS011;37774;52.192;4.584;2022-08-21T00:13:39;17.33;;;3.90;;
51686;SDS011;37774;52.192;4.584;2022-08-21T00:16:06;7.30;;;3.88;;
51686;SDS011;37774;52.192;4.584;2022-08-21T00:18:33;11.93;;;3.95;;
51686;SDS011;37774;52.192;4.584;2022-08-21T00:21:00;14.65;;;4.45;;
51686;SDS011;37774;52.192;4.584;2022-08-21T00:23:27;10.98;;;3.95;;
51686;SDS011;37774;52.192;4.584;2022-08-21T00:25:54;14.93;;;3.92;;
51686;SDS011;37774;52.192;4.584;2022-08-21T00:28:20;9.75;;;3.42;;
51686;SDS011;37774;52.192;4.584;2022-08-21T00:30:52;11.02;;;3.50;;
51686;SDS011;37774;52.192;4.584;2022-08-21T00:33:18;12.90;;;3.75;;
51686;SDS011;37774;52.192;4.584;2022-08-21T00:35:45;7.65;;;3.55;;
51686;SDS011;37774;52.192;4.584;2022-08-21T00:38:12;18.75;;;4.32;;
51686;SDS011;37774;52.192;4.584;2022-08-21T00:40:41;13.95;;;4.15;;
51686;SDS011;37774;52.192;4.584;2022-08-21T00:43:10;18.75;;;4.18;;
51686;SDS011;37774;52.192;4.584;2022-08-21T00:45:39;8.10;;;4.32;;
51686;SDS011;37774;52.192;4.584;2022-08-21T00:48:07;14.77;;;3.60;;
51686;SDS011;37774;52.192;4.584;2022-08-21T00:50:35;11.93;;;3.90;;
51686;SDS011;37774;52.192;4.584;2022-08-21T00:53:05;13.80;;;3.53;;
51686;SDS011;37774;52.192;4.584;2022-08-21T00:55:33;9.98;;;3.90;;
51686;SDS011;37774;52.192;4.584;2022-08-21T00:58:02;20.20;;;3.72;;
51686;SDS011;37774;52.192;4.584;2022-08-21T01:00:34;16.05;;;3.53;;
51686;SDS011;37774;52.192;4.584;2022-08-21T01:03:05;15.25;;;3.47;;
51686;SDS011;37774;52.192;4.584;2022-08-21T01:05:35;6.45;;;3.30;;
51686;SDS011;37774;52.192;4.584;2022-08-21T01:08:03;9.93;;;3.55;;
51686;SDS011;37774;52.192;4.584;2022-08-21T01:10:30;12.25;;;3.78;;
51686;SDS011;37774;52.192;4.584;2022-08-21T01:12:58;15.27;;;4.20;;
51686;SDS011;37774;52.192;4.584;2022-08-21T01:15:26;10.10;;;3.50;;
51686;SDS011;37774;52.192;4.584;2022-08-21T01:17:55;16.85;;;3.45;;
51686;SDS011;37774;52.192;4.584;2022-08-21T01:20:24;18.20;;;3.03;;
51686;SDS011;37774;52.192;4.584;2022-08-21T01:22:52;13.95;;;3.40;;
51686;SDS011;37774;52.192;4.584;2022-08-21T01:25:19;5.90;;;3.15;;
51686;SDS011;37774;52.192;4.584;2022-08-21T01:27:46;12.25;;;3.60;;
51686;SDS011;37774;52.192;4.584;2022-08-21T01:30:14;11.73;;;3.35;;
51686;SDS011;37774;52.192;4.584;2022-08-21T01:32:44;11.07;;;3.50;;
51686;SDS011;37774;52.192;4.584;2022-08-21T01:35:12;8.80;;;3.50;;
51686;SDS011;37774;52.192;4.584;2022-08-21T01:37:40;9.85;;;3.72;;
51686;SDS011;37774;52.192;4.584;2022-08-21T01:40:09;13.70;;;4.20;;
51686;SDS011;37774;52.192;4.584;2022-08-21T01:42:37;21.50;;;4.25;;
51686;SDS011;37774;52.192;4.584;2022-08-21T01:45:05;16.25;;;4.35;;
51686;SDS011;37774;52.192;4.584;2022-08-21T01:47:34;11.05;;;4.50;;
51686;SDS011;37774;52.192;4.584;2022-08-21T01:50:02;15.68;;;4.63;;
51686;SDS011;37774;52.192;4.584;2022-08-21T01:52:31;13.10;;;4.57;;
51686;SDS011;37774;52.192;4.584;2022-08-21T01:54:58;16.77;;;3.88;;
51686;SDS011;37774;52.192;4.584;2022-08-21T01:57:26;13.77;;;3.88;;
51686;SDS011;37774;52.192;4.584;2022-08-21T01:59:53;10.45;;;3.92;;
51686;SDS011;37774;52.192;4.584;2022-08-21T02:02:20;13.48;;;3.83;;
51686;SDS011;37774;52.192;4.584;2022-08-21T02:04:47;8.45;;;4.20;;
51686;SDS011;37774;52.192;4.584;2022-08-21T02:07:14;16.80;;;4.03;;
51686;SDS011;37774;52.192;4.584;2022-08-21T02:09:41;21.02;;;4.28;;
51686;SDS011;37774;52.192;4.584;2022-08-21T02:12:09;12.90;;;4.13;;
51686;SDS011;37774;52.192;4.584;2022-08-21T02:14:38;15.13;;;3.83;;
51686;SDS011;37774;52.192;4.584;2022-08-21T02:17:05;14.85;;;4.13;;
51686;SDS011;37774;52.192;4.584;2022-08-21T02:19:32;13.27;;;4.05;;
51686;SDS011;37774;52.192;4.584;2022-08-21T02:21:59;9.73;;;3.42;;
51686;SDS011;37774;52.192;4.584;2022-08-21T02:24:26;14.30;;;3.28;;
51686;SDS011;37774;52.192;4.584;2022-08-21T02:26:52;6.82;;;3.60;;
51686;SDS011;37774;52.192;4.584;2022-08-21T02:29:19;17.27;;;3.35;;
51686;SDS011;37774;52.192;4.584;2022-08-21T02:31:47;6.55;;;2.63;;
51686;SDS011;37774;52.192;4.584;2022-08-21T02:34:14;9.27;;;3.05;;
51686;SDS011;37774;52.192;4.584;2022-08-21T02:36:41;12.70;;;4.57;;
51686;SDS011;37774;52.192;4.584;2022-08-21T02:39:07;17.92;;;3.63;;
51686;SDS011;37774;52.192;4.584;2022-08-21T02:41:34;9.43;;;3.30;;
51686;SDS011;37774;52.192;4.584;2022-08-21T02:44:01;13.02;;;3.45;;
51686;SDS011;37774;52.192;4.584;2022-08-21T02:46:28;12.95;;;3.75;;
51686;SDS011;37774;52.192;4.584;2022-08-21T02:48:57;18.67;;;3.65;;
51686;SDS011;37774;52.192;4.584;2022-08-21T02:51:23;15.15;;;3.70;;
51686;SDS011;37774;52.192;4.584;2022-08-21T02:53:51;12.82;;;3.85;;
51686;SDS011;37774;52.192;4.584;2022-08-21T02:56:18;15.50;;;3.25;;
51686;SDS011;37774;52.192;4.584;2022-08-21T02:58:47;6.57;;;3.60;;
51686;SDS011;37774;52.192;4.584;2022-08-21T03:01:18;16.80;;;4.03;;
51686;SDS011;37774;52.192;4.584;2022-08-21T03:03:46;14.63;;;3.40;;
51686;SDS011;37774;52.192;4.584;2022-08-21T03:06:17;13.15;;;3.80;;
51686;SDS011;37774;52.192;4.584;2022-08-21T03:08:46;13.23;;;4.05;;
51686;SDS011;37774;52.192;4.584;2022-08-21T03:11:13;17.55;;;3.47;;
51686;SDS011;37774;52.192;4.584;2022-08-21T03:13:41;12.20;;;4.55;;
51686;SDS011;37774;52.192;4.584;2022-08-21T03:16:08;14.57;;;4.28;;
51686;SDS011;37774;52.192;4.584;2022-08-21T03:18:35;16.25;;;4.10;;
51686;SDS011;37774;52.192;4.584;2022-08-21T03:21:02;15.27;;;4.10;;
51686;SDS011;37774;52.192;4.584;2022-08-21T03:23:32;17.65;;;4.82;;
51686;SDS011;37774;52.192;4.584;2022-08-21T03:25:59;16.08;;;4.68;;
51686;SDS011;37774;52.192;4.584;2022-08-21T03:28:26;16.13;;;4.68;;
51686;SDS011;37774;52.192;4.584;2022-08-21T03:30:53;11.35;;;4.35;;
51686;SDS011;37774;52.192;4.584;2022-08-21T03:33:20;11.45;;;4.95;;
51686;SDS011;37774;52.192;4.584;2022-08-21T03:35:49;9.75;;;3.85;;
51686;SDS011;37774;52.192;4.584;2022-08-21T03:38:24;14.73;;;3.73;;
51686;SDS011;37774;52.192;4.584;2022-08-21T03:40:53;14.57;;;4.43;;
51686;SDS011;37774;52.192;4.584;2022-08-21T03:43:20;8.05;;;3.90;;
51686;SDS011;37774;52.192;4.584;2022-08-21T03:45:47;12.10;;;3.83;;
51686;SDS011;37774;52.192;4.584;2022-08-21T03:48:14;16.42;;;3.97;;
51686;SDS011;37774;52.192;4.584;2022-08-21T03:50:42;10.82;;;4.72;;
51686;SDS011;37774;52.192;4.584;2022-08-21T03:53:12;12.13;;;3.78;;
51686;SDS011;37774;52.192;4.584;2022-08-21T03:55:40;14.27;;;3.95;;
51686;SDS011;37774;52.192;4.584;2022-08-21T03:58:08;11.18;;;4.18;;
51686;SDS011;37774;52.192;4.584;2022-08-21T04:00:35;19.02;;;4.20;;
51686;SDS011;37774;52.192;4.584;2022-08-21T04:03:02;17.15;;;4.18;;
51686;SDS011;37774;52.192;4.584;2022-08-21T04:05:29;17.80;;;3.50;;
51686;SDS011;37774;52.192;4.584;2022-08-21T04:07:56;13.02;;;3.72;;
51686;SDS011;37774;52.192;4.584;2022-08-21T04:10:25;16.77;;;4.47;;
51686;SDS011;37774;52.192;4.584;2022-08-21T04:12:53;7.35;;;3.50;;
51686;SDS011;37774;52.192;4.584;2022-08-21T04:15:22;18.73;;;4.30;;
51686;SDS011;37774;52.192;4.584;2022-08-21T04:17:51;18.00;;;3.70;;
51686;SDS011;37774;52.192;4.584;2022-08-21T04:20:18;13.25;;;5.80;;
51686;SDS011;37774;52.192;4.584;2022-08-21T04:22:46;12.38;;;3.92;;
51686;SDS011;37774;52.192;4.584;2022-08-21T04:25:15;12.23;;;3.75;;
51686;SDS011;37774;52.192;4.584;2022-08-21T04:27:42;12.82;;;4.10;;
51686;SDS011;37774;52.192;4.584;2022-08-21T04:30:11;15.82;;;4.20;;
51686;SDS011;37774;52.192;4.584;2022-08-21T04:32:43;22.55;;;4.18;;
51686;SDS011;37774;52.192;4.584;2022-08-21T04:35:12;9.82;;;3.35;;
51686;SDS011;37774;52.192;4.584;2022-08-21T04:37:42;13.80;;;4.32;;
51686;SDS011;37774;52.192;4.584;2022-08-21T04:40:09;12.63;;;3.40;;
51686;SDS011;37774;52.192;4.584;2022-08-21T04:42:41;16.08;;;4.40;;
51686;SDS011;37774;52.192;4.584;2022-08-21T04:45:14;17.80;;;4.10;;
51686;SDS011;37774;52.192;4.584;2022-08-21T04:47:48;10.00;;;3.93;;
51686;SDS011;37774;52.192;4.584;2022-08-21T04:50:15;10.15;;;3.92;;
51686;SDS011;37774;52.192;4.584;2022-08-21T04:52:43;12.18;;;3.80;;
51686;SDS011;37774;52.192;4.584;2022-08-21T04:55:09;19.00;;;3.47;;
51686;SDS011;37774;52.192;4.584;2022-08-21T04:57:37;14.80;;;4.10;;
51686;SDS011;37774;52.192;4.584;2022-08-21T05:00:07;13.27;;;3.65;;
51686;SDS011;37774;52.192;4.584;2022-08-21T05:02:35;10.68;;;3.53;;
51686;SDS011;37774;52.192;4.584;2022-08-21T05:05:05;16.40;;;4.35;;
51686;SDS011;37774;52.192;4.584;2022-08-21T05:07:33;16.33;;;4.03;;
51686;SDS011;37774;52.192;4.584;2022-08-21T05:10:00;18.83;;;4.28;;
51686;SDS011;37774;52.192;4.584;2022-08-21T05:12:27;11.52;;;4.50;;
51686;SDS011;37774;52.192;4.584;2022-08-21T05:14:54;14.45;;;4.00;;
51686;SDS011;37774;52.192;4.584;2022-08-21T05:17:21;11.15;;;4.03;;
51686;SDS011;37774;52.192;4.584;2022-08-21T05:19:48;9.77;;;4.18;;
51686;SDS011;37774;52.192;4.584;2022-08-21T05:22:20;14.90;;;4.32;;
51686;SDS011;37774;52.192;4.584;2022-08-21T05:24:46;13.90;;;4.10;;
51686;SDS011;37774;52.192;4.584;2022-08-21T05:27:13;12.20;;;5.50;;
51686;SDS011;37774;52.192;4.584;2022-08-21T05:29:40;12.25;;;5.63;;
51686;SDS011;37774;52.192;4.584;2022-08-21T05:32:08;12.90;;;4.60;;
51686;SDS011;37774;52.192;4.584;2022-08-21T05:34:35;17.67;;;4.47;;
51686;SDS011;37774;52.192;4.584;2022-08-21T05:37:02;17.23;;;5.53;;
51686;SDS011;37774;52.192;4.584;2022-08-21T05:39:30;11.57;;;4.88;;
51686;SDS011;37774;52.192;4.584;2022-08-21T05:41:57;21.95;;;5.05;;
51686;SDS011;37774;52.192;4.584;2022-08-21T05:44:24;18.77;;;5.03;;
51686;SDS011;37774;52.192;4.584;2022-08-21T05:46:51;12.40;;;5.15;;
51686;SDS011;37774;52.192;4.584;2022-08-21T05:49:18;13.80;;;4.75;;
51686;SDS011;37774;52.192;4.584;2022-08-21T05:51:44;21.02;;;4.70;;
51686;SDS011;37774;52.192;4.584;2022-08-21T05:54:11;12.77;;;5.10;;
51686;SDS011;37774;52.192;4.584;2022-08-21T05:56:39;17.58;;;5.53;;
51686;SDS011;37774;52.192;4.584;2022-08-21T05:59:09;18.42;;;6.22;;
51686;SDS011;37774;52.192;4.584;2022-08-21T06:01:38;19.83;;;5.40;;
51686;SDS011;37774;52.192;4.584;2022-08-21T06:04:05;13.73;;;6.03;;
51686;SDS011;37774;52.192;4.584;2022-08-21T06:06:33;18.55;;;6.07;;
51686;SDS011;37774;52.192;4.584;2022-08-21T06:09:00;23.10;;;5.68;;
51686;SDS011;37774;52.192;4.584;2022-08-21T06:11:27;16.27;;;5.35;;
51686;SDS011;37774;52.192;4.584;2022-08-21T06:13:55;21.02;;;6.20;;
51686;SDS011;37774;52.192;4.584;2022-08-21T06:16:23;27.00;;;6.68;;
51686;SDS011;37774;52.192;4.584;2022-08-21T06:18:50;20.13;;;6.15;;
51686;SDS011;37774;52.192;4.584;2022-08-21T06:21:17;21.27;;;6.50;;
51686;SDS011;37774;52.192;4.584;2022-08-21T06:23:44;29.45;;;7.30;;
51686;SDS011;37774;52.192;4.584;2022-08-21T06:26:13;28.02;;;6.32;;
51686;SDS011;37774;52.192;4.584;2022-08-21T06:28:41;26.27;;;6.88;;
51686;SDS011;37774;52.192;4.584;2022-08-21T06:31:15;19.95;;;7.32;;
51686;SDS011;37774;52.192;4.584;2022-08-21T06:33:48;21.10;;;6.30;;
51686;SDS011;37774;52.192;4.584;2022-08-21T06:36:17;27.65;;;7.00;;
51686;SDS011;37774;52.192;4.584;2022-08-21T06:38:45;20.20;;;6.65;;
51686;SDS011;37774;52.192;4.584;2022-08-21T06:41:12;16.95;;;6.03;;
51686;SDS011;37774;52.192;4.584;2022-08-21T06:43:40;24.88;;;5.85;;
51686;SDS011;37774;52.192;4.584;2022-08-21T06:46:06;19.15;;;6.38;;
51686;SDS011;37774;52.192;4.584;2022-08-21T06:48:35;21.40;;;6.15;;
51686;SDS011;37774;52.192;4.584;2022-08-21T06:51:02;23.10;;;5.93;;
51686;SDS011;37774;52.192;4.584;2022-08-21T06:53:29;32.50;;;6.43;;
51686;SDS011;37774;52.192;4.584;2022-08-21T06:55:55;16.95;;;5.57;;
51686;SDS011;37774;52.192;4.584;2022-08-21T06:58:22;24.13;;;5.80;;
51686;SDS011;37774;52.192;4.584;2022-08-21T07:00:49;15.00;;;6.30;;
51686;SDS011;37774;52.192;4.584;2022-08-21T07:03:22;20.80;;;5.60;;
51686;SDS011;37774;52.192;4.584;2022-08-21T07:05:53;19.33;;;5.75;;
51686;SDS011;37774;52.192;4.584;2022-08-21T07:08:21;21.55;;;5.05;;
51686;SDS011;37774;52.192;4.584;2022-08-21T07:10:48;19.48;;;5.55;;
51686;SDS011;37774;52.192;4.584;2022-08-21T07:13:15;25.25;;;5.75;;
51686;SDS011;37774;52.192;4.584;2022-08-21T07:15:43;32.35;;;5.88;;
51686;SDS011;37774;52.192;4.584;2022-08-21T07:18:11;17.13;;;5.40;;
51686;SDS011;37774;52.192;4.584;2022-08-21T07:20:38;23.75;;;5.57;;
51686;SDS011;37774;52.192;4.584;2022-08-21T07:23:08;20.00;;;5.97;;
51686;SDS011;37774;52.192;4.584;2022-08-21T07:25:38;22.63;;;5.53;;
51686;SDS011;37774;52.192;4.584;2022-08-21T07:28:05;18.38;;;6.20;;
51686;SDS011;37774;52.192;4.584;2022-08-21T07:30:31;18.48;;;4.75;;
51686;SDS011;37774;52.192;4.584;2022-08-21T07:32:58;16.63;;;4.70;;
51686;SDS011;37774;52.192;4.584;2022-08-21T07:35:25;14.05;;;4.90;;
51686;SDS011;37774;52.192;4.584;2022-08-21T07:37:53;15.57;;;5.40;;
51686;SDS011;37774;52.192;4.584;2022-08-21T07:40:21;23.90;;;4.75;;
51686;SDS011;37774;52.192;4.584;2022-08-21T07:42:48;16.88;;;4.30;;
51686;SDS011;37774;52.192;4.584;2022-08-21T07:45:17;26.80;;;4.82;;
51686;SDS011;37774;52.192;4.584;2022-08-21T07:47:45;22.23;;;4.90;;
51686;SDS011;37774;52.192;4.584;2022-08-21T07:50:13;22.92;;;4.20;;
51686;SDS011;37774;52.192;4.584;2022-08-21T07:52:40;18.52;;;4.10;;
51686;SDS011;37774;52.192;4.584;2022-08-21T07:55:08;23.35;;;4.20;;
51686;SDS011;37774;52.192;4.584;2022-08-21T07:57:37;17.60;;;4.35;;
51686;SDS011;37774;52.192;4.584;2022-08-21T08:00:05;18.58;;;3.60;;
51686;SDS011;37774;52.192;4.584;2022-08-21T08:02:34;19.13;;;3.67;;
51686;SDS011;37774;52.192;4.584;2022-08-21T08:05:02;15.45;;;3.05;;
51686;SDS011;37774;52.192;4.584;2022-08-21T08:07:30;13.55;;;3.40;;
51686;SDS011;37774;52.192;4.584;2022-08-21T08:09:57;8.80;;;3.15;;
51686;SDS011;37774;52.192;4.584;2022-08-21T08:12:24;17.95;;;3.65;;
51686;SDS011;37774;52.192;4.584;2022-08-21T08:14:55;12.38;;;3.20;;
51686;SDS011;37774;52.192;4.584;2022-08-21T08:17:22;16.08;;;3.65;;
51686;SDS011;37774;52.192;4.584;2022-08-21T08:19:49;21.30;;;3.70;;
51686;SDS011;37774;52.192;4.584;2022-08-21T08:22:17;19.33;;;4.40;;
51686;SDS011;37774;52.192;4.584;2022-08-21T08:24:45;12.88;;;2.70;;
51686;SDS011;37774;52.192;4.584;2022-08-21T08:27:13;13.70;;;2.95;;
51686;SDS011;37774;52.192;4.584;2022-08-21T08:29:40;18.73;;;2.47;;
51686;SDS011;37774;52.192;4.584;2022-08-21T08:32:08;16.58;;;3.05;;
51686;SDS011;37774;52.192;4.584;2022-08-21T08:34:35;15.07;;;3.30;;
51686;SDS011;37774;52.192;4.584;2022-08-21T08:37:03;12.73;;;4.15;;
51686;SDS011;37774;52.192;4.584;2022-08-21T08:39:31;11.98;;;3.28;;
51686;SDS011;37774;52.192;4.584;2022-08-21T08:41:59;14.05;;;3.38;;
51686;SDS011;37774;52.192;4.584;2022-08-21T08:44:31;13.43;;;3.05;;
51686;SDS011;37774;52.192;4.584;2022-08-21T08:46:58;11.23;;;2.58;;
51686;SDS011;37774;52.192;4.584;2022-08-21T08:49:29;20.60;;;3.03;;
51686;SDS011;37774;52.192;4.584;2022-08-21T08:52:04;12.15;;;3.58;;
51686;SDS011;37774;52.192;4.584;2022-08-21T08:54:39;16.98;;;3.38;;
51686;SDS011;37774;52.192;4.584;2022-08-21T08:57:10;14.68;;;3.05;;
51686;SDS011;37774;52.192;4.584;2022-08-21T08:59:44;13.40;;;2.80;;
51686;SDS011;37774;52.192;4.584;2022-08-21T09:02:14;13.65;;;2.97;;
51686;SDS011;37774;52.192;4.584;2022-08-21T09:04:44;12.40;;;3.40;;
51686;SDS011;37774;52.192;4.584;2022-08-21T09:07:16;11.77;;;3.33;;
51686;SDS011;37774;52.192;4.584;2022-08-21T09:09:51;10.40;;;2.22;;
51686;SDS011;37774;52.192;4.584;2022-08-21T09:12:31;12.80;;;2.45;;
51686;SDS011;37774;52.192;4.584;2022-08-21T09:15:06;8.98;;;2.00;;
51686;SDS011;37774;52.192;4.584;2022-08-21T09:17:46;12.30;;;2.28;;
51686;SDS011;37774;52.192;4.584;2022-08-21T09:20:29;9.23;;;1.83;;
51686;SDS011;37774;52.192;4.584;2022-08-21T09:23:07;10.95;;;2.30;;
51686;SDS011;37774;52.192;4.584;2022-08-21T09:25:46;11.15;;;3.70;;
51686;SDS011;37774;52.192;4.584;2022-08-21T09:28:21;3.08;;;1.70;;
51686;SDS011;37774;52.192;4.584;2022-08-21T09:30:49;4.63;;;1.30;;
51686;SDS011;37774;52.192;4.584;2022-08-21T09:33:20;10.43;;;1.42;;
51686;SDS011;37774;52.192;4.584;2022-08-21T09:35:49;7.28;;;1.42;;
51686;SDS011;37774;52.192;4.584;2022-08-21T09:38:25;10.85;;;1.30;;
51686;SDS011;37774;52.192;4.584;2022-08-21T09:40:58;7.53;;;1.23;;
51686;SDS011;37774;52.192;4.584;2022-08-21T09:43:28;4.05;;;1.30;;
51686;SDS011;37774;52.192;4.584;2022-08-21T09:46:04;4.70;;;1.35;;
51686;SDS011;37774;52.192;4.584;2022-08-21T09:48:39;8.30;;;1.20;;
51686;SDS011;37774;52.192;4.584;2022-08-21T09:51:11;4.70;;;1.52;;
51686;SDS011;37774;52.192;4.584;2022-08-21T09:53:41;6.28;;;1.73;;
51686;SDS011;37774;52.192;4.584;2022-08-21T09:56:25;4.45;;;0.85;;
51686;SDS011;37774;52.192;4.584;2022-08-21T09:59:15;5.38;;;1.30;;
51686;SDS011;37774;52.192;4.584;2022-08-21T10:01:46;9.02;;;1.00;;
51686;SDS011;37774;52.192;4.584;2022-08-21T10:04:15;7.15;;;1.48;;
51686;SDS011;37774;52.192;4.584;2022-08-21T10:06:50;2.78;;;1.42;;
51686;SDS011;37774;52.192;4.584;2022-08-21T10:09:18;9.93;;;1.80;;
51686;SDS011;37774;52.192;4.584;2022-08-21T10:11:49;8.88;;;1.10;;
51686;SDS011;37774;52.192;4.584;2022-08-21T10:14:31;5.05;;;1.55;;
51686;SDS011;37774;52.192;4.584;2022-08-21T10:17:10;7.15;;;1.38;;
51686;SDS011;37774;52.192;4.584;2022-08-21T10:19:47;9.27;;;1.77;;
51686;SDS011;37774;52.192;4.584;2022-08-21T10:22:30;6.43;;;2.05;;
51686;SDS011;37774;52.192;4.584;2022-08-21T10:25:06;8.52;;;1.30;;
51686;SDS011;37774;52.192;4.584;2022-08-21T10:27:41;6.28;;;1.40;;
51686;SDS011;37774;52.192;4.584;2022-08-21T10:30:18;10.02;;;2.30;;
51686;SDS011;37774;52.192;4.584;2022-08-21T10:33:10;6.60;;;1.70;;
51686;SDS011;37774;52.192;4.584;2022-08-21T10:35:47;6.72;;;1.60;;
51686;SDS011;37774;52.192;4.584;2022-08-21T10:38:35;11.77;;;1.77;;
51686;SDS011;37774;52.192;4.584;2022-08-21T10:41:14;4.43;;;2.33;;
51686;SDS011;37774;52.192;4.584;2022-08-21T10:43:50;5.80;;;1.08;;
51686;SDS011;37774;52.192;4.584;2022-08-21T10:46:29;5.53;;;1.50;;
51686;SDS011;37774;52.192;4.584;2022-08-21T10:49:16;6.28;;;1.55;;
51686;SDS011;37774;52.192;4.584;2022-08-21T10:51:52;7.65;;;1.55;;
51686;SDS011;37774;52.192;4.584;2022-08-21T10:54:26;6.45;;;1.13;;
51686;SDS011;37774;52.192;4.584;2022-08-21T10:57:02;7.30;;;1.27;;
51686;SDS011;37774;52.192;4.584;2022-08-21T10:59:38;3.63;;;0.95;;
51686;SDS011;37774;52.192;4.584;2022-08-21T11:02:11;7.35;;;1.42;;
51686;SDS011;37774;52.192;4.584;2022-08-21T11:04:48;4.03;;;1.08;;
51686;SDS011;37774;52.192;4.584;2022-08-21T11:07:21;6.68;;;1.20;;
51686;SDS011;37774;52.192;4.584;2022-08-21T11:09:54;6.05;;;1.27;;
51686;SDS011;37774;52.192;4.584;2022-08-21T11:12:24;6.07;;;1.20;;
51686;SDS011;37774;52.192;4.584;2022-08-21T11:14:55;4.82;;;1.00;;
51686;SDS011;37774;52.192;4.584;2022-08-21T11:17:28;10.02;;;1.65;;
51686;SDS011;37774;52.192;4.584;2022-08-21T11:20:03;9.25;;;1.30;;
51686;SDS011;37774;52.192;4.584;2022-08-21T11:22:36;5.70;;;0.93;;
51686;SDS011;37774;52.192;4.584;2022-08-21T11:25:11;8.65;;;1.48;;
51686;SDS011;37774;52.192;4.584;2022-08-21T11:27:45;6.80;;;1.25;;
51686;SDS011;37774;52.192;4.584;2022-08-21T11:30:15;7.50;;;1.42;;
51686;SDS011;37774;52.192;4.584;2022-08-21T11:32:49;3.70;;;1.08;;
51686;SDS011;37774;52.192;4.584;2022-08-21T11:35:34;4.07;;;1.13;;
51686;SDS011;37774;52.192;4.584;2022-08-21T11:38:16;3.72;;;1.52;;
51686;SDS011;37774;52.192;4.584;2022-08-21T11:41:05;3.72;;;1.05;;
51686;SDS011;37774;52.192;4.584;2022-08-21T11:43:41;3.50;;;1.83;;
51686;SDS011;37774;52.192;4.584;2022-08-21T11:46:15;7.05;;;1.90;;
51686;SDS011;37774;52.192;4.584;2022-08-21T11:48:56;4.15;;;1.10;;
51686;SDS011;37774;52.192;4.584;2022-08-21T11:51:33;6.60;;;1.70;;
51686;SDS011;37774;52.192;4.584;2022-08-21T11:54:06;7.20;;;1.38;;
51686;SDS011;37774;52.192;4.584;2022-08-21T11:56:45;7.43;;;1.10;;
51686;SDS011;37774;52.192;4.584;2022-08-21T11:59:17;6.90;;;1.48;;
51686;SDS011;37774;52.192;4.584;2022-08-21T12:01:48;6.55;;;1.60;;
51686;SDS011;37774;52.192;4.584;2022-08-21T12:04:18;12.32;;;1.42;;
51686;SDS011;37774;52.192;4.584;2022-08-21T12:06:54;16.85;;;1.42;;
51686;SDS011;37774;52.192;4.584;2022-08-21T12:09:29;6.38;;;1.63;;
51686;SDS011;37774;52.192;4.584;2022-08-21T12:12:04;10.63;;;1.48;;
51686;SDS011;37774;52.192;4.584;2022-08-21T12:14:36;5.63;;;1.35;;
51686;SDS011;37774;52.192;4.584;2022-08-21T12:17:06;10.63;;;1.45;;
51686;SDS011;37774;52.192;4.584;2022-08-21T12:19:35;11.43;;;1.70;;
51686;SDS011;37774;52.192;4.584;2022-08-21T12:22:08;6.68;;;1.65;;
51686;SDS011;37774;52.192;4.584;2022-08-21T12:24:38;7.45;;;1.25;;
51686;SDS011;37774;52.192;4.584;2022-08-21T12:27:19;6.28;;;1.02;;
51686;SDS011;37774;52.192;4.584;2022-08-21T12:29:51;6.70;;;1.20;;
51686;SDS011;37774;52.192;4.584;2022-08-21T12:32:26;8.32;;;1.30;;
51686;SDS011;37774;52.192;4.584;2022-08-21T12:34:58;6.68;;;1.30;;
51686;SDS011;37774;52.192;4.584;2022-08-21T12:37:34;8.63;;;2.35;;
51686;SDS011;37774;52.192;4.584;2022-08-21T12:40:09;6.25;;;1.38;;
51686;SDS011;37774;52.192;4.584;2022-08-21T12:42:52;7.13;;;2.03;;
51686;SDS011;37774;52.192;4.584;2022-08-21T12:45:22;7.50;;;1.73;;
51686;SDS011;37774;52.192;4.584;2022-08-21T12:47:56;11.65;;;1.20;;
51686;SDS011;37774;52.192;4.584;2022-08-21T12:50:29;11.95;;;1.40;;
51686;SDS011;37774;52.192;4.584;2022-08-21T12:53:05;3.03;;;0.95;;
51686;SDS011;37774;52.192;4.584;2022-08-21T12:55:40;7.28;;;1.45;;
51686;SDS011;37774;52.192;4.584;2022-08-21T12:58:17;7.38;;;1.58;;
51686;SDS011;37774;52.192;4.584;2022-08-21T13:00:47;10.90;;;1.48;;
51686;SDS011;37774;52.192;4.584;2022-08-21T13:03:15;5.25;;;1.35;;
51686;SDS011;37774;52.192;4.584;2022-08-21T13:05:42;6.50;;;1.50;;
51686;SDS011;37774;52.192;4.584;2022-08-21T13:08:10;6.35;;;0.90;;
51686;SDS011;37774;52.192;4.584;2022-08-21T13:10:39;7.95;;;1.15;;
51686;SDS011;37774;52.192;4.584;2022-08-21T13:13:16;5.90;;;1.70;;
51686;SDS011;37774;52.192;4.584;2022-08-21T13:15:47;6.28;;;0.95;;
51686;SDS011;37774;52.192;4.584;2022-08-21T13:18:21;10.82;;;1.83;;
51686;SDS011;37774;52.192;4.584;2022-08-21T13:21:02;7.40;;;1.10;;
51686;SDS011;37774;52.192;4.584;2022-08-21T13:23:31;8.88;;;1.58;;
51686;SDS011;37774;52.192;4.584;2022-08-21T13:25:58;4.90;;;1.38;;
51686;SDS011;37774;52.192;4.584;2022-08-21T13:28:34;6.45;;;1.77;;
51686;SDS011;37774;52.192;4.584;2022-08-21T13:31:05;6.80;;;1.48;;
51686;SDS011;37774;52.192;4.584;2022-08-21T13:33:35;9.35;;;1.17;;
51686;SDS011;37774;52.192;4.584;2022-08-21T13:36:05;3.17;;;1.25;;
51686;SDS011;37774;52.192;4.584;2022-08-21T13:38:38;7.07;;;1.42;;
51686;SDS011;37774;52.192;4.584;2022-08-21T13:41:09;7.28;;;1.08;;
51686;SDS011;37774;52.192;4.584;2022-08-21T13:43:46;5.13;;;1.45;;
51686;SDS011;37774;52.192;4.584;2022-08-21T13:46:22;4.35;;;1.23;;
51686;SDS011;37774;52.192;4.584;2022-08-21T13:48:51;6.75;;;1.33;;
51686;SDS011;37774;52.192;4.584;2022-08-21T13:51:20;9.93;;;1.38;;
51686;SDS011;37774;52.192;4.584;2022-08-21T13:53:48;6.68;;;1.45;;
51686;SDS011;37774;52.192;4.584;2022-08-21T13:56:24;8.15;;;1.33;;
51686;SDS011;37774;52.192;4.584;2022-08-21T13:58:55;7.00;;;1.37;;
51686;SDS011;37774;52.192;4.584;2022-08-21T14:01:24;6.38;;;1.30;;
51686;SDS011;37774;52.192;4.584;2022-08-21T14:03:54;7.28;;;1.33;;
51686;SDS011;37774;52.192;4.584;2022-08-21T14:06:24;7.35;;;1.30;;
51686;SDS011;37774;52.192;4.584;2022-08-21T14:08:54;6.72;;;1.42;;
51686;SDS011;37774;52.192;4.584;2022-08-21T14:11:24;4.13;;;0.93;;
51686;SDS011;37774;52.192;4.584;2022-08-21T14:13:57;4.40;;;1.33;;
51686;SDS011;37774;52.192;4.584;2022-08-21T14:16:27;7.82;;;1.25;;
51686;SDS011;37774;52.192;4.584;2022-08-21T14:19:08;4.65;;;0.93;;
51686;SDS011;37774;52.192;4.584;2022-08-21T14:21:38;6.43;;;1.42;;
51686;SDS011;37774;52.192;4.584;2022-08-21T14:24:09;16.27;;;1.80;;
51686;SDS011;37774;52.192;4.584;2022-08-21T14:26:42;9.98;;;1.50;;
51686;SDS011;37774;52.192;4.584;2022-08-21T14:29:14;6.70;;;1.50;;
51686;SDS011;37774;52.192;4.584;2022-08-21T14:31:48;6.85;;;1.67;;
51686;SDS011;37774;52.192;4.584;2022-08-21T14:34:26;5.30;;;1.33;;
51686;SDS011;37774;52.192;4.584;2022-08-21T14:36:55;12.82;;;1.10;;
51686;SDS011;37774;52.192;4.584;2022-08-21T14:39:23;4.22;;;1.30;;
51686;SDS011;37774;52.192;4.584;2022-08-21T14:41:49;4.65;;;1.05;;
51686;SDS011;37774;52.192;4.584;2022-08-21T14:44:20;5.45;;;1.30;;
51686;SDS011;37774;52.192;4.584;2022-08-21T14:46:48;13.52;;;2.22;;
51686;SDS011;37774;52.192;4.584;2022-08-21T14:49:15;5.60;;;1.55;;
51686;SDS011;37774;52.192;4.584;2022-08-21T14:51:42;8.35;;;1.55;;
51686;SDS011;37774;52.192;4.584;2022-08-21T14:54:09;9.50;;;1.75;;
51686;SDS011;37774;52.192;4.584;2022-08-21T14:56:36;4.80;;;1.60;;
51686;SDS011;37774;52.192;4.584;2022-08-21T14:59:04;6.60;;;1.52;;